Time;durP1;ratioP1;P1;durP2;ratioP2;P2;SDS_P1;SDS_P2;PMS_P1;PMS_P2;Temp;Humidity;BMP_temperature;BMP_pressure;BME280_temperature;BME280_humidity;BME280_pressure;Samples;Min_cycle;Max_cycle;Signal;HPM_P1;HPM_P2
2022/11/06 00:00:30;;;;;;;13.55;7.60;;;;;;;;;;4981072;28;20047;-79
2022/11/06 00:02:58;;;;;;;9.73;6.88;;;;;;;;;;4951042;28;20054;-79
2022/11/06 00:08:09;;;;;;;10.30;7.20;;;;;;;;;;4952067;28;21134;-76
2022/11/06 00:10:35;;;;;;;12.52;7.28;;;;;;;;;;4943654;28;20489;-77
2022/11/06 00:13:01;;;;;;;11.48;7.22;;;;;;;;;;4939324;28;20059;-77
2022/11/06 00:15:27;;;;;;;10.43;7.25;;;;;;;;;;4931132;28;20098;-77
2022/11/06 00:17:53;;;;;;;10.15;6.75;;;;;;;;;;4981315;28;20496;-77
2022/11/06 00:20:20;;;;;;;12.63;7.28;;;;;;;;;;4949317;28;20047;-77
2022/11/06 00:22:46;;;;;;;10.80;7.30;;;;;;;;;;4981626;28;20047;-77
2022/11/06 00:25:12;;;;;;;12.45;7.05;;;;;;;;;;4949269;29;20101;-76
2022/11/06 00:27:39;;;;;;;12.80;7.25;;;;;;;;;;4948844;28;20047;-78
2022/11/06 00:30:08;;;;;;;10.57;7.43;;;;;;;;;;4948271;29;20097;-77
2022/11/06 00:32:34;;;;;;;10.70;6.80;;;;;;;;;;4952209;29;20075;-76
2022/11/06 00:35:00;;;;;;;11.55;7.50;;;;;;;;;;4946874;28;20416;-77
2022/11/06 00:37:26;;;;;;;8.88;6.57;;;;;;;;;;4946480;28;20044;-76
2022/11/06 00:39:52;;;;;;;11.30;7.07;;;;;;;;;;4979011;28;20050;-77
2022/11/06 00:42:18;;;;;;;9.80;6.95;;;;;;;;;;4951570;28;20409;-77
2022/11/06 00:44:44;;;;;;;11.13;7.72;;;;;;;;;;4947317;29;20052;-77
2022/11/06 00:47:11;;;;;;;11.40;7.68;;;;;;;;;;4948692;29;20051;-77
2022/11/06 00:49:37;;;;;;;11.52;7.43;;;;;;;;;;4977125;28;20534;-77
2022/11/06 00:52:04;;;;;;;11.50;8.35;;;;;;;;;;4951890;28;20443;-78
2022/11/06 00:54:30;;;;;;;13.35;8.05;;;;;;;;;;4946208;28;20521;-78
2022/11/06 00:56:56;;;;;;;12.95;7.45;;;;;;;;;;4982060;28;20055;-77
2022/11/06 00:59:22;;;;;;;11.27;7.90;;;;;;;;;;4947029;28;20040;-77
2022/11/06 01:01:48;;;;;;;12.13;7.85;;;;;;;;;;4947393;28;20055;-78
2022/11/06 01:04:15;;;;;;;13.50;8.23;;;;;;;;;;4946659;28;20559;-77
2022/11/06 01:06:42;;;;;;;11.73;8.05;;;;;;;;;;4976550;28;20415;-78
2022/11/06 01:09:10;;;;;;;10.77;8.18;;;;;;;;;;4946822;28;20047;-78
2022/11/06 01:11:37;;;;;;;11.63;8.88;;;;;;;;;;4949266;28;20055;-78
2022/11/06 01:14:04;;;;;;;12.45;8.25;;;;;;;;;;4948671;28;20054;-78
2022/11/06 01:16:31;;;;;;;13.15;8.55;;;;;;;;;;4949578;28;20499;-78
2022/11/06 01:18:57;;;;;;;13.23;8.32;;;;;;;;;;4948096;28;20055;-77
2022/11/06 01:21:23;;;;;;;9.82;7.78;;;;;;;;;;4981552;28;20053;-78
2022/11/06 01:23:53;;;;;;;12.10;8.40;;;;;;;;;;4951146;28;20043;-78
2022/11/06 01:26:22;;;;;;;10.63;7.70;;;;;;;;;;4941914;28;20651;-78
2022/11/06 01:28:48;;;;;;;11.43;8.45;;;;;;;;;;4942809;28;20040;-78
2022/11/06 01:31:16;;;;;;;12.07;9.13;;;;;;;;;;4982376;28;20392;-78
2022/11/06 01:33:42;;;;;;;12.43;8.75;;;;;;;;;;4951233;28;20496;-77
2022/11/06 01:36:13;;;;;;;13.80;9.18;;;;;;;;;;4949647;28;20129;-78
2022/11/06 01:38:42;;;;;;;14.48;9.45;;;;;;;;;;4944920;28;20066;-78
2022/11/06 01:41:11;;;;;;;12.23;9.35;;;;;;;;;;4944403;28;20043;-77
2022/11/06 01:43:46;;;;;;;11.32;9.52;;;;;;;;;;4949598;28;20051;-77
2022/11/06 01:46:12;;;;;;;11.50;8.65;;;;;;;;;;4947150;28;20043;-77
2022/11/06 01:48:42;;;;;;;11.65;10.00;;;;;;;;;;4950093;28;20511;-78
2022/11/06 01:51:08;;;;;;;12.48;9.07;;;;;;;;;;4940817;28;20052;-78
2022/11/06 01:53:35;;;;;;;13.27;9.60;;;;;;;;;;4939126;28;20079;-78
2022/11/06 01:56:02;;;;;;;13.35;9.10;;;;;;;;;;4949223;28;20054;-78
2022/11/06 01:58:31;;;;;;;14.02;9.23;;;;;;;;;;4949774;28;20141;-78
2022/11/06 02:00:57;;;;;;;13.77;9.80;;;;;;;;;;4950837;29;20138;-78
2022/11/06 02:03:23;;;;;;;13.98;8.82;;;;;;;;;;4945419;28;20051;-77
2022/11/06 02:05:49;;;;;;;11.40;9.10;;;;;;;;;;4951199;28;20377;-78
2022/11/06 02:08:16;;;;;;;13.38;9.90;;;;;;;;;;4949216;28;20055;-77
2022/11/06 02:10:43;;;;;;;12.32;9.93;;;;;;;;;;4939953;28;20168;-78
2022/11/06 02:13:20;;;;;;;13.30;9.68;;;;;;;;;;4947929;28;20042;-77
2022/11/06 02:15:49;;;;;;;14.10;10.52;;;;;;;;;;4947752;28;20043;-78
2022/11/06 02:18:18;;;;;;;12.82;10.15;;;;;;;;;;4980957;28;20055;-78
2022/11/06 02:20:50;;;;;;;14.27;11.55;;;;;;;;;;4948103;28;20419;-78
2022/11/06 02:23:16;;;;;;;15.13;11.65;;;;;;;;;;4949338;28;20133;-78
2022/11/06 02:25:52;;;;;;;14.05;11.30;;;;;;;;;;4947635;28;20209;-77
2022/11/06 02:28:22;;;;;;;15.65;11.52;;;;;;;;;;4947890;28;20058;-77
2022/11/06 02:30:56;;;;;;;14.63;11.13;;;;;;;;;;4949006;28;20055;-78
2022/11/06 02:33:28;;;;;;;15.07;11.70;;;;;;;;;;4949452;28;20055;-78
2022/11/06 02:36:11;;;;;;;14.43;11.60;;;;;;;;;;4949331;28;20043;-77
2022/11/06 02:38:43;;;;;;;12.70;11.23;;;;;;;;;;4982163;28;20468;-77
2022/11/06 02:41:17;;;;;;;15.57;12.43;;;;;;;;;;4953273;28;20058;-77
2022/11/06 02:43:45;;;;;;;13.50;12.10;;;;;;;;;;4983748;28;20051;-78
2022/11/06 02:46:14;;;;;;;14.63;12.20;;;;;;;;;;4946370;28;20403;-78
2022/11/06 02:48:43;;;;;;;13.43;11.93;;;;;;;;;;4951096;28;20035;-78
2022/11/06 02:51:11;;;;;;;15.82;11.23;;;;;;;;;;4956050;28;20047;-77
2022/11/06 02:53:39;;;;;;;15.77;13.45;;;;;;;;;;4949918;28;20044;-78
2022/11/06 02:56:08;;;;;;;15.63;12.57;;;;;;;;;;4952620;28;20043;-78
2022/11/06 02:58:38;;;;;;;14.23;12.73;;;;;;;;;;4981528;28;20388;-79
2022/11/06 03:01:11;;;;;;;15.98;11.98;;;;;;;;;;4948232;28;20047;-77
2022/11/06 03:03:40;;;;;;;14.45;12.10;;;;;;;;;;4951675;28;20067;-78
2022/11/06 03:06:12;;;;;;;14.05;12.65;;;;;;;;;;4954049;28;20088;-78
2022/11/06 03:08:49;;;;;;;16.70;12.68;;;;;;;;;;4949537;28;20054;-77
2022/11/06 03:11:27;;;;;;;14.77;13.23;;;;;;;;;;4950587;28;20047;-78
2022/11/06 03:14:02;;;;;;;19.83;12.85;;;;;;;;;;4979197;28;20051;-77
2022/11/06 03:16:28;;;;;;;16.83;13.23;;;;;;;;;;4948215;28;20047;-78
2022/11/06 03:18:54;;;;;;;15.20;12.75;;;;;;;;;;4951668;28;20062;-77
2022/11/06 03:21:32;;;;;;;18.05;13.60;;;;;;;;;;4950357;28;20133;-78
2022/11/06 03:24:03;;;;;;;16.90;14.00;;;;;;;;;;4950223;28;20047;-78
2022/11/06 03:26:32;;;;;;;16.02;12.95;;;;;;;;;;4951411;28;20450;-78
2022/11/06 03:29:01;;;;;;;15.80;12.25;;;;;;;;;;4946849;28;20074;-78
2022/11/06 03:31:33;;;;;;;15.07;13.45;;;;;;;;;;4953543;29;20055;-78
2022/11/06 03:34:11;;;;;;;16.77;13.32;;;;;;;;;;4947002;28;20055;-78
2022/11/06 03:36:40;;;;;;;14.55;12.98;;;;;;;;;;4949691;28;20502;-78
2022/11/06 03:39:09;;;;;;;14.07;12.57;;;;;;;;;;4950270;28;20052;-77
2022/11/06 03:41:37;;;;;;;14.45;12.68;;;;;;;;;;4945797;28;20050;-78
2022/11/06 03:44:05;;;;;;;16.02;13.30;;;;;;;;;;4947411;28;20043;-78
2022/11/06 03:46:32;;;;;;;15.88;13.98;;;;;;;;;;4985469;28;20102;-79
2022/11/06 03:49:00;;;;;;;17.27;13.88;;;;;;;;;;4947310;28;20439;-78
2022/11/06 03:51:32;;;;;;;17.35;13.05;;;;;;;;;;4949630;28;20047;-77
2022/11/06 03:54:02;;;;;;;14.90;12.80;;;;;;;;;;4949916;28;20051;-77
2022/11/06 03:56:32;;;;;;;18.08;14.63;;;;;;;;;;4950801;28;20416;-77
2022/11/06 03:59:01;;;;;;;17.60;14.25;;;;;;;;;;4950824;28;20127;-78
2022/11/06 04:01:28;;;;;;;16.65;14.80;;;;;;;;;;4952908;28;20043;-77
2022/11/06 04:03:56;;;;;;;15.75;14.05;;;;;;;;;;4949029;28;20059;-78
2022/11/06 04:06:28;;;;;;;17.98;14.95;;;;;;;;;;4953469;28;20067;-77
2022/11/06 04:14:30;;;;;;;16.92;15.00;;;;;;;;;;4980826;28;20059;-77
2022/11/06 04:16:58;;;;;;;19.02;14.65;;;;;;;;;;4951086;28;20052;-77
2022/11/06 04:19:24;;;;;;;16.38;14.75;;;;;;;;;;4950029;28;20051;-78
2022/11/06 04:21:53;;;;;;;21.17;15.30;;;;;;;;;;4951160;28;20051;-77
2022/11/06 04:27:34;;;;;;;19.58;15.82;;;;;;;;;;4923904;29;20086;-78
2022/11/06 04:30:10;;;;;;;18.65;15.18;;;;;;;;;;4948145;28;20109;-77
2022/11/06 04:32:55;;;;;;;20.83;15.57;;;;;;;;;;4951650;28;20143;-77
2022/11/06 04:35:24;;;;;;;16.75;14.95;;;;;;;;;;4978995;28;20142;-77
2022/11/06 04:37:54;;;;;;;17.75;15.25;;;;;;;;;;4950207;28;20167;-77
2022/11/06 04:40:24;;;;;;;18.23;14.88;;;;;;;;;;4953820;28;20406;-77
2022/11/06 04:43:05;;;;;;;16.42;14.77;;;;;;;;;;4949785;28;20051;-77
2022/11/06 04:45:40;;;;;;;18.52;15.23;;;;;;;;;;4949478;28;20097;-77
2022/11/06 04:48:07;;;;;;;21.63;15.48;;;;;;;;;;4949691;28;20059;-77
2022/11/06 04:50:35;;;;;;;18.00;14.82;;;;;;;;;;4950655;28;20043;-78
2022/11/06 04:53:03;;;;;;;17.20;14.13;;;;;;;;;;4954833;28;20058;-77
2022/11/06 04:55:30;;;;;;;15.48;13.80;;;;;;;;;;4954147;28;20051;-78
2022/11/06 04:57:56;;;;;;;16.13;13.60;;;;;;;;;;4950782;28;20062;-77
2022/11/06 05:00:22;;;;;;;16.48;13.20;;;;;;;;;;4940335;28;20055;-78
2022/11/06 05:02:48;;;;;;;15.40;13.27;;;;;;;;;;4983889;28;20062;-78
2022/11/06 05:05:14;;;;;;;16.23;13.98;;;;;;;;;;4950362;28;20051;-77
2022/11/06 05:07:40;;;;;;;14.88;13.38;;;;;;;;;;4946492;28;20051;-78
2022/11/06 05:10:06;;;;;;;16.08;13.55;;;;;;;;;;4979493;28;20066;-78
2022/11/06 05:12:32;;;;;;;14.65;12.90;;;;;;;;;;4950266;28;20043;-77
2022/11/06 05:14:58;;;;;;;14.27;12.77;;;;;;;;;;4945584;28;20106;-77
2022/11/06 05:17:27;;;;;;;14.02;12.32;;;;;;;;;;4950961;28;20051;-77
2022/11/06 05:19:56;;;;;;;14.20;12.70;;;;;;;;;;4948687;28;20082;-77
2022/11/06 05:25:20;;;;;;;12.65;11.35;;;;;;;;;;4914668;28;20047;-77
2022/11/06 05:27:46;;;;;;;12.85;11.57;;;;;;;;;;4980699;28;20062;-78
2022/11/06 05:30:12;;;;;;;12.65;11.27;;;;;;;;;;4977674;28;20035;-77
2022/11/06 05:32:41;;;;;;;12.68;11.23;;;;;;;;;;4945822;28;20043;-77
2022/11/06 05:35:07;;;;;;;11.82;10.55;;;;;;;;;;4949913;28;20051;-77
2022/11/06 05:37:33;;;;;;;11.63;10.25;;;;;;;;;;4948662;28;20039;-77
2022/11/06 05:39:59;;;;;;;11.45;10.32;;;;;;;;;;4976869;28;20043;-78
2022/11/06 05:42:25;;;;;;;11.43;10.23;;;;;;;;;;4950547;28;20047;-77
2022/11/06 05:44:51;;;;;;;12.25;10.00;;;;;;;;;;4975579;28;20102;-77
2022/11/06 05:47:17;;;;;;;12.02;10.70;;;;;;;;;;4981794;28;20055;-77
2022/11/06 05:49:43;;;;;;;11.80;10.48;;;;;;;;;;4942111;28;20043;-77
2022/11/06 05:52:09;;;;;;;11.10;9.65;;;;;;;;;;4942450;28;20050;-77
2022/11/06 05:54:35;;;;;;;13.68;11.35;;;;;;;;;;4950684;28;20760;-77
2022/11/06 05:57:01;;;;;;;12.35;11.13;;;;;;;;;;4949732;28;20047;-77
2022/11/06 05:59:27;;;;;;;12.27;11.07;;;;;;;;;;4942178;28;20544;-78
2022/11/06 06:01:53;;;;;;;13.48;10.93;;;;;;;;;;4948488;28;20051;-77
2022/11/06 06:04:19;;;;;;;11.70;10.48;;;;;;;;;;4945550;28;20488;-77
2022/11/06 06:06:45;;;;;;;10.43;9.32;;;;;;;;;;4948904;28;20059;-77
2022/11/06 06:09:11;;;;;;;10.57;9.52;;;;;;;;;;4944072;28;20051;-77
2022/11/06 06:11:37;;;;;;;9.55;8.55;;;;;;;;;;4981309;28;20138;-77
2022/11/06 06:14:03;;;;;;;9.70;8.70;;;;;;;;;;4952072;28;20491;-77
2022/11/06 06:16:29;;;;;;;10.52;8.30;;;;;;;;;;4951251;28;20053;-77
2022/11/06 06:18:55;;;;;;;9.70;8.65;;;;;;;;;;4952269;28;20039;-77
2022/11/06 06:21:21;;;;;;;9.95;8.95;;;;;;;;;;4944239;28;20069;-77
2022/11/06 06:23:47;;;;;;;11.20;10.07;;;;;;;;;;4951099;28;20471;-77
2022/11/06 06:26:13;;;;;;;12.23;10.77;;;;;;;;;;4980855;28;20043;-77
2022/11/06 06:28:39;;;;;;;12.82;11.60;;;;;;;;;;4952936;28;20051;-77
2022/11/06 06:31:06;;;;;;;12.80;11.50;;;;;;;;;;4949969;28;20052;-76
2022/11/06 06:33:32;;;;;;;12.88;11.57;;;;;;;;;;4980995;28;20043;-76
2022/11/06 06:35:58;;;;;;;14.73;13.18;;;;;;;;;;4951124;28;20125;-77
2022/11/06 06:38:25;;;;;;;15.82;14.13;;;;;;;;;;4948785;28;20082;-77
2022/11/06 06:40:52;;;;;;;15.82;13.80;;;;;;;;;;4951971;28;20050;-77
2022/11/06 06:43:18;;;;;;;15.68;14.07;;;;;;;;;;4953348;28;20396;-76
2022/11/06 06:45:44;;;;;;;16.73;13.45;;;;;;;;;;4951846;28;20066;-78
2022/11/06 06:48:10;;;;;;;16.02;14.38;;;;;;;;;;4954618;28;20043;-77
2022/11/06 06:50:37;;;;;;;14.20;12.68;;;;;;;;;;4949235;28;20411;-77
2022/11/06 06:53:03;;;;;;;13.80;12.25;;;;;;;;;;4947290;28;20106;-77
2022/11/06 06:55:29;;;;;;;14.32;12.88;;;;;;;;;;4949580;28;20046;-78
2022/11/06 06:57:56;;;;;;;15.05;13.45;;;;;;;;;;4952399;28;20047;-77
2022/11/06 07:00:22;;;;;;;17.25;12.98;;;;;;;;;;4951691;28;20040;-77
2022/11/06 07:02:48;;;;;;;14.70;13.23;;;;;;;;;;4951098;28;20462;-78
2022/11/06 07:05:17;;;;;;;16.60;14.73;;;;;;;;;;4947433;28;20058;-77
2022/11/06 07:07:43;;;;;;;15.07;13.48;;;;;;;;;;4946656;28;20048;-77
2022/11/06 07:10:09;;;;;;;16.80;14.27;;;;;;;;;;4943885;28;20046;-77
2022/11/06 07:12:35;;;;;;;15.45;13.82;;;;;;;;;;4945605;28;20047;-77
2022/11/06 07:15:01;;;;;;;15.98;13.52;;;;;;;;;;4951341;28;20083;-77
2022/11/06 07:17:27;;;;;;;18.63;13.52;;;;;;;;;;4936989;29;20138;-78
2022/11/06 07:19:53;;;;;;;16.65;13.63;;;;;;;;;;4949530;28;20055;-77
2022/11/06 07:22:19;;;;;;;16.27;13.00;;;;;;;;;;4952124;29;20050;-77
2022/11/06 07:24:45;;;;;;;17.95;14.38;;;;;;;;;;4953272;28;20047;-77
2022/11/06 07:27:11;;;;;;;16.52;13.57;;;;;;;;;;4950318;28;20054;-77
2022/11/06 07:29:37;;;;;;;15.82;12.57;;;;;;;;;;4975607;28;20548;-77
2022/11/06 07:32:03;;;;;;;17.02;14.23;;;;;;;;;;4953252;28;20058;-77
2022/11/06 07:34:29;;;;;;;17.08;13.57;;;;;;;;;;4951972;28;20093;-77
2022/11/06 07:36:55;;;;;;;17.35;14.95;;;;;;;;;;4947303;28;20047;-77
2022/11/06 07:39:21;;;;;;;18.88;12.77;;;;;;;;;;4950770;28;20043;-76
2022/11/06 07:41:47;;;;;;;19.48;13.43;;;;;;;;;;4947286;28;20059;-77
2022/11/06 07:44:13;;;;;;;19.85;12.95;;;;;;;;;;4951750;28;20044;-78
2022/11/06 07:46:39;;;;;;;15.40;12.88;;;;;;;;;;4975249;28;20067;-77
2022/11/06 07:49:05;;;;;;;20.10;12.30;;;;;;;;;;4950209;28;20039;-77
2022/11/06 07:51:34;;;;;;;15.05;11.27;;;;;;;;;;4951842;28;20451;-77
2022/11/06 07:54:00;;;;;;;16.30;11.82;;;;;;;;;;4950094;28;20051;-77
2022/11/06 07:56:26;;;;;;;16.08;11.38;;;;;;;;;;4951720;28;20051;-77
2022/11/06 07:58:52;;;;;;;14.00;10.80;;;;;;;;;;4953397;28;20051;-77
2022/11/06 08:01:18;;;;;;;13.35;10.30;;;;;;;;;;4948404;28;20047;-78
2022/11/06 08:03:44;;;;;;;13.77;10.70;;;;;;;;;;4945074;28;20492;-77
2022/11/06 08:06:10;;;;;;;13.13;10.43;;;;;;;;;;4949067;28;20083;-77
2022/11/06 08:08:37;;;;;;;15.70;10.63;;;;;;;;;;4944430;28;20040;-77
2022/11/06 08:11:07;;;;;;;12.35;10.10;;;;;;;;;;4949172;28;20530;-77
2022/11/06 08:13:34;;;;;;;13.57;10.27;;;;;;;;;;4981481;28;20055;-76
2022/11/06 08:16:07;;;;;;;19.42;12.27;;;;;;;;;;4949238;28;20047;-77
2022/11/06 08:18:33;;;;;;;11.32;9.07;;;;;;;;;;4948026;28;20050;-77
2022/11/06 08:20:59;;;;;;;13.25;9.90;;;;;;;;;;4951994;28;20055;-77
2022/11/06 08:23:26;;;;;;;12.95;9.30;;;;;;;;;;4949759;28;20427;-77
2022/11/06 08:25:56;;;;;;;11.90;8.63;;;;;;;;;;4977120;28;20050;-77
2022/11/06 08:28:25;;;;;;;13.38;8.63;;;;;;;;;;4980534;28;20479;-76
2022/11/06 08:30:51;;;;;;;16.92;9.75;;;;;;;;;;4948657;28;20039;-76
2022/11/06 08:33:18;;;;;;;12.10;9.00;;;;;;;;;;4950771;28;20051;-77
2022/11/06 08:35:44;;;;;;;13.23;8.70;;;;;;;;;;4949277;28;20403;-77
2022/11/06 08:38:10;;;;;;;11.82;9.15;;;;;;;;;;4948040;28;20062;-78
2022/11/06 08:40:37;;;;;;;12.20;9.18;;;;;;;;;;4948469;28;20050;-78
2022/11/06 08:43:06;;;;;;;14.65;9.23;;;;;;;;;;4972467;28;20048;-77
2022/11/06 08:45:32;;;;;;;11.70;7.95;;;;;;;;;;4943373;29;20046;-77
2022/11/06 08:48:01;;;;;;;11.98;8.23;;;;;;;;;;4948693;28;20407;-77
2022/11/06 08:50:27;;;;;;;11.55;8.55;;;;;;;;;;4945727;28;20423;-77
2022/11/06 08:52:56;;;;;;;10.40;7.80;;;;;;;;;;4947651;28;20546;-77
2022/11/06 08:55:22;;;;;;;10.65;7.30;;;;;;;;;;4982717;28;20051;-77
2022/11/06 08:57:48;;;;;;;9.70;7.32;;;;;;;;;;4951009;28;20134;-76
2022/11/06 09:00:15;;;;;;;11.00;6.60;;;;;;;;;;4950971;28;20067;-77
2022/11/06 09:02:41;;;;;;;7.93;6.75;;;;;;;;;;4945144;28;20058;-77
2022/11/06 09:05:07;;;;;;;9.02;7.13;;;;;;;;;;4947520;29;20474;-78
2022/11/06 09:07:33;;;;;;;10.02;6.90;;;;;;;;;;4981120;28;20615;-78
2022/11/06 09:09:59;;;;;;;9.93;8.02;;;;;;;;;;4976593;28;20039;-77
2022/11/06 09:12:25;;;;;;;9.45;7.07;;;;;;;;;;4978263;28;20150;-77
2022/11/06 09:14:51;;;;;;;8.43;6.38;;;;;;;;;;4949950;28;21554;-77
2022/11/06 09:17:22;;;;;;;10.32;6.70;;;;;;;;;;4946654;28;20047;-77
2022/11/06 09:19:48;;;;;;;9.35;6.60;;;;;;;;;;4946927;28;20069;-77
2022/11/06 09:22:14;;;;;;;9.82;6.97;;;;;;;;;;4951726;28;20062;-76
2022/11/06 09:24:40;;;;;;;11.02;7.30;;;;;;;;;;4956576;28;20391;-76
2022/11/06 09:27:06;;;;;;;9.27;6.90;;;;;;;;;;4951700;28;20660;-76
2022/11/06 09:29:32;;;;;;;9.98;7.18;;;;;;;;;;4944577;28;20047;-76
2022/11/06 09:32:01;;;;;;;12.77;10.60;;;;;;;;;;4946448;28;20407;-76
2022/11/06 09:34:27;;;;;;;11.18;7.32;;;;;;;;;;4948909;28;20510;-76
2022/11/06 09:36:53;;;;;;;9.68;6.80;;;;;;;;;;4949419;28;20040;-76
2022/11/06 09:39:19;;;;;;;13.45;7.40;;;;;;;;;;4939019;28;20042;-76
2022/11/06 09:41:55;;;;;;;12.98;7.15;;;;;;;;;;4946391;28;20043;-78
2022/11/06 09:44:38;;;;;;;8.68;6.22;;;;;;;;;;4941427;28;20194;-76
2022/11/06 09:47:06;;;;;;;9.15;6.65;;;;;;;;;;4980864;28;20058;-76
2022/11/06 09:49:32;;;;;;;9.35;6.93;;;;;;;;;;4954000;28;20039;-75
2022/11/06 09:52:02;;;;;;;7.05;6.03;;;;;;;;;;4955565;29;20395;-78
2022/11/06 09:54:34;;;;;;;8.98;6.00;;;;;;;;;;4955123;28;20377;-77
2022/11/06 09:57:13;;;;;;;7.63;5.90;;;;;;;;;;4956044;29;20059;-75
2022/11/06 09:59:40;;;;;;;13.52;9.02;;;;;;;;;;4943620;28;20040;-77
2022/11/06 10:02:20;;;;;;;7.32;6.00;;;;;;;;;;4952561;28;20051;-75
2022/11/06 10:05:00;;;;;;;12.13;6.55;;;;;;;;;;4952220;28;20226;-75
2022/11/06 10:07:27;;;;;;;20.92;13.95;;;;;;;;;;4979330;28;20050;-76
2022/11/06 10:09:53;;;;;;;9.82;6.38;;;;;;;;;;4949119;28;20058;-77
2022/11/06 10:12:43;;;;;;;7.45;5.70;;;;;;;;;;4944155;28;20078;-78
2022/11/06 10:15:18;;;;;;;8.82;5.95;;;;;;;;;;4955144;29;20138;-75
2022/11/06 10:17:53;;;;;;;8.45;6.40;;;;;;;;;;4940956;28;20071;-76
2022/11/06 10:20:36;;;;;;;8.75;7.03;;;;;;;;;;4953772;28;20476;-75
2022/11/06 10:23:12;;;;;;;10.73;5.20;;;;;;;;;;4947799;28;20051;-77
2022/11/06 10:25:58;;;;;;;8.13;4.80;;;;;;;;;;4951301;28;20039;-76
2022/11/06 10:28:33;;;;;;;6.13;4.78;;;;;;;;;;4952299;28;20060;-76
2022/11/06 10:31:19;;;;;;;7.63;4.57;;;;;;;;;;4984137;28;20054;-77
2022/11/06 10:33:51;;;;;;;7.32;4.47;;;;;;;;;;4952379;28;20060;-76
2022/11/06 10:36:23;;;;;;;8.02;4.30;;;;;;;;;;4951904;28;20043;-76
2022/11/06 10:38:49;;;;;;;7.90;5.57;;;;;;;;;;4954761;28;20102;-77
2022/11/06 10:41:21;;;;;;;9.10;5.32;;;;;;;;;;4968007;28;20047;-78
2022/11/06 10:44:02;;;;;;;9.40;6.50;;;;;;;;;;4985272;28;20436;-76
2022/11/06 10:46:46;;;;;;;6.85;4.40;;;;;;;;;;4948733;28;20055;-76
2022/11/06 10:49:21;;;;;;;7.03;5.00;;;;;;;;;;4951316;28;20054;-77
2022/11/06 10:51:47;;;;;;;8.48;6.05;;;;;;;;;;4947724;28;20392;-77
2022/11/06 10:54:31;;;;;;;9.70;6.90;;;;;;;;;;4953437;29;20058;-76
2022/11/06 10:57:03;;;;;;;10.75;5.82;;;;;;;;;;4946665;28;20098;-76
2022/11/06 10:59:30;;;;;;;9.93;6.00;;;;;;;;;;4952938;28;20051;-76
2022/11/06 11:01:56;;;;;;;11.07;5.93;;;;;;;;;;4948678;29;20063;-77
2022/11/06 11:04:22;;;;;;;10.73;6.15;;;;;;;;;;4944936;28;20151;-79
2022/11/06 11:06:48;;;;;;;10.88;6.30;;;;;;;;;;4949492;28;20138;-77
2022/11/06 11:09:26;;;;;;;7.55;6.05;;;;;;;;;;4949471;28;20377;-78
2022/11/06 11:11:52;;;;;;;9.55;5.25;;;;;;;;;;4953024;29;20039;-78
2022/11/06 11:14:22;;;;;;;9.75;5.65;;;;;;;;;;4953160;29;20051;-77
2022/11/06 11:16:49;;;;;;;9.00;5.72;;;;;;;;;;4950273;28;20083;-78
2022/11/06 11:19:34;;;;;;;9.98;5.53;;;;;;;;;;4951753;29;20055;-77
2022/11/06 11:22:01;;;;;;;10.13;6.55;;;;;;;;;;4983936;28;20134;-76
2022/11/06 11:24:28;;;;;;;13.85;7.03;;;;;;;;;;4953419;28;20488;-77
2022/11/06 11:26:55;;;;;;;12.10;6.28;;;;;;;;;;4947297;28;20059;-77
2022/11/06 11:29:26;;;;;;;11.43;5.60;;;;;;;;;;4945057;28;20043;-76
2022/11/06 11:31:56;;;;;;;7.35;5.43;;;;;;;;;;4950004;28;20047;-77
2022/11/06 11:34:26;;;;;;;8.85;5.90;;;;;;;;;;4984189;28;20054;-80
2022/11/06 11:37:01;;;;;;;9.65;5.47;;;;;;;;;;4987339;28;20407;-78
2022/11/06 11:39:29;;;;;;;8.73;5.10;;;;;;;;;;4947489;28;20622;-77
2022/11/06 11:42:15;;;;;;;8.85;5.50;;;;;;;;;;4941668;28;20134;-78
2022/11/06 11:44:41;;;;;;;6.32;4.78;;;;;;;;;;4977837;28;20085;-77
2022/11/06 11:47:19;;;;;;;6.45;4.45;;;;;;;;;;4948196;28;20177;-77
2022/11/06 11:49:45;;;;;;;7.97;4.60;;;;;;;;;;4949392;28;20480;-76
2022/11/06 11:52:12;;;;;;;9.70;4.25;;;;;;;;;;4945186;28;20098;-77
2022/11/06 11:54:39;;;;;;;11.60;4.28;;;;;;;;;;4946685;28;20547;-79
2022/11/06 11:57:06;;;;;;;11.07;4.13;;;;;;;;;;4953666;28;20047;-78
2022/11/06 11:59:38;;;;;;;8.80;4.20;;;;;;;;;;4943092;28;20109;-77
2022/11/06 12:02:14;;;;;;;7.95;4.53;;;;;;;;;;4982714;28;20081;-76
2022/11/06 12:04:42;;;;;;;6.00;3.90;;;;;;;;;;4953452;29;20082;-77
2022/11/06 12:07:13;;;;;;;7.82;4.20;;;;;;;;;;4944161;28;20059;-77
2022/11/06 12:09:43;;;;;;;7.38;4.72;;;;;;;;;;4946765;28;20107;-77
2022/11/06 12:12:24;;;;;;;5.78;3.42;;;;;;;;;;4941533;28;20471;-77
2022/11/06 12:15:17;;;;;;;7.18;4.15;;;;;;;;;;4956016;28;20081;-77
2022/11/06 12:17:43;;;;;;;8.88;4.00;;;;;;;;;;4948435;28;20102;-77
2022/11/06 12:20:19;;;;;;;6.20;4.25;;;;;;;;;;4946357;28;20051;-75
2022/11/06 12:22:45;;;;;;;7.10;4.30;;;;;;;;;;4940381;28;20054;-76
2022/11/06 12:25:19;;;;;;;12.20;7.38;;;;;;;;;;4953877;29;20137;-76
2022/11/06 12:27:51;;;;;;;8.07;4.50;;;;;;;;;;4950094;28;20047;-76
2022/11/06 12:30:18;;;;;;;5.10;3.50;;;;;;;;;;4947587;28;20046;-77
2022/11/06 12:32:58;;;;;;;8.88;4.15;;;;;;;;;;5139405;27;20356;-75
2022/11/06 12:35:27;;;;;;;11.65;4.35;;;;;;;;;;5129325;27;20482;-76
2022/11/06 12:37:56;;;;;;;8.50;3.75;;;;;;;;;;5126587;27;20034;-76
2022/11/06 12:40:27;;;;;;;8.90;4.20;;;;;;;;;;5142948;27;20490;-76
2022/11/06 12:42:57;;;;;;;5.03;3.70;;;;;;;;;;5125434;27;20109;-76
2022/11/06 12:45:28;;;;;;;9.80;4.00;;;;;;;;;;5125747;27;21350;-75
2022/11/06 12:47:58;;;;;;;8.95;4.88;;;;;;;;;;5143806;27;20091;-74
2022/11/06 12:50:27;;;;;;;4.68;3.47;;;;;;;;;;5119882;27;20069;-78
2022/11/06 12:52:59;;;;;;;7.38;4.18;;;;;;;;;;5126998;27;20482;-78
2022/11/06 12:55:28;;;;;;;7.93;4.60;;;;;;;;;;5146742;27;20094;-77
2022/11/06 12:57:56;;;;;;;9.20;4.30;;;;;;;;;;5155751;27;20042;-81
2022/11/06 13:00:24;;;;;;;6.07;4.20;;;;;;;;;;5157689;27;20047;-78
2022/11/06 13:03:02;;;;;;;8.45;5.38;;;;;;;;;;5127396;27;20478;-81
2022/11/06 13:05:47;;;;;;;8.15;4.85;;;;;;;;;;5127610;27;20074;-80
2022/11/06 13:08:32;;;;;;;5.72;3.55;;;;;;;;;;5142839;27;20482;-78
2022/11/06 13:10:58;;;;;;;7.30;3.78;;;;;;;;;;5139665;27;20038;-77
2022/11/06 13:13:27;;;;;;;7.43;4.75;;;;;;;;;;5147496;27;20043;-81
2022/11/06 13:16:03;;;;;;;5.47;4.00;;;;;;;;;;5146558;27;20482;-79
2022/11/06 13:18:29;;;;;;;4.70;3.20;;;;;;;;;;5124988;27;20054;-79
2022/11/06 13:21:00;;;;;;;6.07;3.58;;;;;;;;;;5124859;27;20486;-82
2022/11/06 13:23:32;;;;;;;5.30;3.50;;;;;;;;;;5145211;27;20038;-79
2022/11/06 13:26:22;;;;;;;8.37;3.87;;;;;;;;;;5161703;27;20389;-81
2022/11/06 13:28:54;;;;;;;6.05;3.63;;;;;;;;;;5153311;27;20043;-78
2022/11/06 13:31:30;;;;;;;5.15;3.40;;;;;;;;;;5137298;27;20055;-79
2022/11/06 13:33:58;;;;;;;5.10;3.42;;;;;;;;;;5118949;27;20447;-80
2022/11/06 13:36:25;;;;;;;6.03;3.92;;;;;;;;;;5126177;27;20486;-80
2022/11/06 13:39:06;;;;;;;4.00;3.47;;;;;;;;;;5140294;27;20066;-83
2022/11/06 13:41:32;;;;;;;8.40;3.97;;;;;;;;;;5125446;27;20087;-79
2022/11/06 13:44:15;;;;;;;5.63;3.88;;;;;;;;;;5128123;27;20162;-82
2022/11/06 13:47:00;;;;;;;6.03;3.63;;;;;;;;;;5125454;27;20108;-80
2022/11/06 13:49:33;;;;;;;7.15;3.58;;;;;;;;;;5124863;27;20047;-80
2022/11/06 13:51:59;;;;;;;;;;;;;;;;;;5114311;27;20078;-79
2022/11/06 13:54:31;;;;;;;5.88;3.60;;;;;;;;;;5121573;27;19958;-78
2022/11/06 13:57:16;;;;;;;9.27;3.75;;;;;;;;;;5106670;27;20058;-78
2022/11/06 14:00:01;;;;;;;8.40;4.03;;;;;;;;;;5122782;27;20428;-79
2022/11/06 14:02:35;;;;;;;6.80;4.00;;;;;;;;;;5104822;27;20039;-80
2022/11/06 14:05:19;;;;;;;9.27;4.30;;;;;;;;;;5115436;27;20175;-77
2022/11/06 14:07:46;;;;;;;7.70;4.55;;;;;;;;;;5105708;27;20394;-79
2022/11/06 14:10:19;;;;;;;7.53;3.63;;;;;;;;;;5110411;27;20498;-81
2022/11/06 14:12:47;;;;;;;7.32;3.30;;;;;;;;;;5119977;27;20248;-82
2022/11/06 14:15:16;;;;;;;7.20;3.75;;;;;;;;;;5128184;27;20121;-79
2022/11/06 14:17:51;;;;;;;9.35;3.97;;;;;;;;;;5112022;27;20085;-81
2022/11/06 14:20:28;;;;;;;7.07;3.80;;;;;;;;;;5106663;27;20051;-80
2022/11/06 14:22:54;;;;;;;9.13;3.97;;;;;;;;;;5114105;27;20051;-81
2022/11/06 14:25:31;;;;;;;7.05;4.28;;;;;;;;;;5128572;27;20042;-82
2022/11/06 14:27:57;;;;;;;10.38;3.83;;;;;;;;;;5128949;27;20681;-79
2022/11/06 14:30:29;;;;;;;4.35;2.90;;;;;;;;;;5107225;27;20031;-82
2022/11/06 14:32:58;;;;;;;8.15;3.38;;;;;;;;;;5123580;27;20138;-81
2022/11/06 14:35:27;;;;;;;7.50;3.30;;;;;;;;;;5104721;27;20046;-81
2022/11/06 14:38:10;;;;;;;9.85;5.03;;;;;;;;;;5129213;27;20035;-79
2022/11/06 14:40:37;;;;;;;27.50;14.68;;;;;;;;;;5108787;27;20115;-81
2022/11/06 14:43:18;;;;;;;23.67;11.80;;;;;;;;;;5121140;27;20044;-81
2022/11/06 14:45:53;;;;;;;19.98;11.65;;;;;;;;;;5129243;27;20126;-79
2022/11/06 14:48:29;;;;;;;7.68;4.10;;;;;;;;;;5126640;27;20099;-80
2022/11/06 14:50:56;;;;;;;12.68;6.50;;;;;;;;;;5132630;27;20031;-80
2022/11/06 14:53:24;;;;;;;10.05;3.50;;;;;;;;;;5123735;27;20054;-80
2022/11/06 14:55:58;;;;;;;7.13;3.90;;;;;;;;;;5129951;27;20427;-81